Time;durP1;ratioP1;P1;durP2;ratioP2;P2;SDS_P1;SDS_P2;PMS_P1;PMS_P2;Temp;Humidity;BMP_temperature;BMP_pressure;BME280_temperature;BME280_humidity;BME280_pressure;Samples;Min_cycle;Max_cycle;Signal;HPM_P1;HPM_P2
2020/12/30 00:00:23;;;;;;;5.68;5.07;;;;;;;;;;5101163;28;20271;-61
2020/12/30 00:02:50;;;;;;;7.10;5.25;;;;;;;;;;5100974;28;20216;-61
2020/12/30 00:05:18;;;;;;;6.15;4.95;;;;;;;;;;5100638;28;20212;-61
2020/12/30 00:07:45;;;;;;;7.78;5.35;;;;;;;;;;5102836;28;20291;-61
2020/12/30 00:10:13;;;;;;;6.85;5.88;;;;;;;;;;5102704;28;20204;-61
2020/12/30 00:12:40;;;;;;;6.78;5.05;;;;;;;;;;5102105;28;20228;-61
2020/12/30 00:15:07;;;;;;;5.93;5.20;;;;;;;;;;5106223;28;20706;-61
2020/12/30 00:17:34;;;;;;;7.50;5.28;;;;;;;;;;5111934;28;20204;-61
2020/12/30 00:20:00;;;;;;;6.53;5.65;;;;;;;;;;5105760;28;20211;-61
2020/12/30 00:22:28;;;;;;;8.30;5.35;;;;;;;;;;5105178;28;20220;-62
2020/12/30 00:24:55;;;;;;;6.10;4.70;;;;;;;;;;5108493;28;20238;-62
2020/12/30 00:27:21;;;;;;;6.45;5.20;;;;;;;;;;5107372;28;20768;-61
2020/12/30 00:29:48;;;;;;;6.25;5.43;;;;;;;;;;5105059;28;20204;-61
2020/12/30 00:32:15;;;;;;;8.45;5.15;;;;;;;;;;5102607;28;20228;-60
2020/12/30 00:34:42;;;;;;;7.32;5.10;;;;;;;;;;5101104;28;20617;-61
2020/12/30 00:37:09;;;;;;;8.60;5.43;;;;;;;;;;5102942;28;20226;-60
2020/12/30 00:39:37;;;;;;;6.05;5.45;;;;;;;;;;5108906;28;20200;-61
2020/12/30 00:42:03;;;;;;;8.25;5.28;;;;;;;;;;5104170;28;20227;-60
2020/12/30 00:44:30;;;;;;;6.32;5.00;;;;;;;;;;5099134;28;20242;-61
2020/12/30 00:46:57;;;;;;;7.35;4.90;;;;;;;;;;5100410;28;20253;-61
2020/12/30 00:49:25;;;;;;;7.15;5.40;;;;;;;;;;5100031;28;20757;-61
2020/12/30 00:51:52;;;;;;;5.90;5.30;;;;;;;;;;5097773;28;20224;-61
2020/12/30 00:54:19;;;;;;;6.65;5.95;;;;;;;;;;5097437;28;20207;-62
2020/12/30 00:56:47;;;;;;;5.55;5.00;;;;;;;;;;5096854;28;20691;-62
2020/12/30 00:59:14;;;;;;;7.18;5.70;;;;;;;;;;5097299;28;20196;-61
2020/12/30 01:01:41;;;;;;;7.30;5.28;;;;;;;;;;5099358;28;20227;-62
2020/12/30 01:04:08;;;;;;;6.60;5.38;;;;;;;;;;5100915;28;20310;-60
2020/12/30 01:06:35;;;;;;;8.00;6.03;;;;;;;;;;5101074;28;20212;-61
2020/12/30 01:09:02;;;;;;;9.00;5.13;;;;;;;;;;5099799;28;20349;-60
2020/12/30 01:11:29;;;;;;;7.40;5.75;;;;;;;;;;5098809;28;20228;-62
2020/12/30 01:13:56;;;;;;;7.25;5.25;;;;;;;;;;5097405;28;20208;-62
2020/12/30 01:16:24;;;;;;;10.25;6.00;;;;;;;;;;5097494;28;20200;-61
2020/12/30 01:18:50;;;;;;;7.10;5.85;;;;;;;;;;5096725;28;20196;-61
2020/12/30 01:21:17;;;;;;;8.18;5.53;;;;;;;;;;5096496;28;20228;-62
2020/12/30 01:23:44;;;;;;;7.20;4.95;;;;;;;;;;5096815;28;20687;-62
2020/12/30 01:26:11;;;;;;;7.80;6.53;;;;;;;;;;5096518;28;20200;-62
2020/12/30 01:28:38;;;;;;;6.43;5.25;;;;;;;;;;5096718;28;20216;-60
2020/12/30 01:31:05;;;;;;;6.75;6.07;;;;;;;;;;5096335;28;20604;-61
2020/12/30 01:33:32;;;;;;;8.25;5.90;;;;;;;;;;5097022;28;20209;-62
2020/12/30 01:35:59;;;;;;;6.80;5.82;;;;;;;;;;5097144;28;20233;-61
2020/12/30 01:38:25;;;;;;;7.22;5.85;;;;;;;;;;5096881;28;20684;-61
2020/12/30 01:40:54;;;;;;;7.05;5.68;;;;;;;;;;5098621;28;20250;-61
2020/12/30 01:43:21;;;;;;;8.23;6.20;;;;;;;;;;5099930;28;20232;-61
2020/12/30 01:45:49;;;;;;;6.15;5.35;;;;;;;;;;5099662;28;20204;-62
2020/12/30 01:48:17;;;;;;;7.25;5.90;;;;;;;;;;5100262;28;20308;-61
2020/12/30 01:50:44;;;;;;;8.73;6.30;;;;;;;;;;5098943;28;20545;-61
2020/12/30 01:53:12;;;;;;;7.53;6.05;;;;;;;;;;5097925;28;20200;-60
2020/12/30 01:55:39;;;;;;;12.10;6.70;;;;;;;;;;5097169;28;20204;-62
2020/12/30 01:58:06;;;;;;;7.47;5.88;;;;;;;;;;5096080;28;20291;-61
2020/12/30 02:00:33;;;;;;;7.68;6.65;;;;;;;;;;5095954;28;20200;-62
2020/12/30 02:03:01;;;;;;;7.70;6.75;;;;;;;;;;5095965;28;20291;-62
2020/12/30 02:05:30;;;;;;;6.07;5.20;;;;;;;;;;5095338;28;20299;-61
2020/12/30 02:07:57;;;;;;;8.25;7.35;;;;;;;;;;5095462;28;20239;-61
2020/12/30 02:10:24;;;;;;;7.47;5.90;;;;;;;;;;5095420;28;20212;-61
2020/12/30 02:12:51;;;;;;;9.00;5.43;;;;;;;;;;5095544;28;20633;-61
2020/12/30 02:15:26;;;;;;;7.30;6.60;;;;;;;;;;5095787;28;20208;-61
2020/12/30 02:17:52;;;;;;;7.50;6.15;;;;;;;;;;5096058;28;20238;-62
2020/12/30 02:20:19;;;;;;;7.40;6.57;;;;;;;;;;5095584;28;20664;-61
2020/12/30 02:22:50;;;;;;;8.35;6.22;;;;;;;;;;5095750;28;20236;-62
2020/12/30 02:25:18;;;;;;;8.43;6.72;;;;;;;;;;5096338;28;20211;-61
2020/12/30 02:27:44;;;;;;;6.70;6.00;;;;;;;;;;5095752;28;20760;-61
2020/12/30 02:30:11;;;;;;;7.22;6.18;;;;;;;;;;5095786;28;20208;-62
2020/12/30 02:32:38;;;;;;;9.70;6.40;;;;;;;;;;5095961;28;20712;-61
2020/12/30 02:35:05;;;;;;;8.05;6.07;;;;;;;;;;5096362;28;20203;-61
2020/12/30 02:37:32;;;;;;;13.50;7.22;;;;;;;;;;5095583;28;20320;-61
2020/12/30 02:39:58;;;;;;;10.27;7.22;;;;;;;;;;5095485;28;20277;-63
2020/12/30 02:42:27;;;;;;;7.70;6.80;;;;;;;;;;5094983;28;20277;-61
2020/12/30 02:44:56;;;;;;;7.50;6.38;;;;;;;;;;5094930;28;20665;-60
2020/12/30 02:47:23;;;;;;;6.55;5.95;;;;;;;;;;5093949;28;20207;-62
2020/12/30 02:49:49;;;;;;;7.57;5.55;;;;;;;;;;5095083;28;20279;-62
2020/12/30 02:52:16;;;;;;;9.73;6.60;;;;;;;;;;5094661;28;20236;-60
2020/12/30 02:54:43;;;;;;;8.82;6.15;;;;;;;;;;5095109;28;20204;-62
2020/12/30 02:57:10;;;;;;;7.90;6.20;;;;;;;;;;5095435;28;20621;-61
2020/12/30 02:59:37;;;;;;;8.75;6.57;;;;;;;;;;5095369;28;20207;-61
2020/12/30 03:02:04;;;;;;;8.77;6.65;;;;;;;;;;5097498;28;20615;-61
2020/12/30 03:04:31;;;;;;;6.88;6.20;;;;;;;;;;5095116;28;20204;-62
2020/12/30 03:06:57;;;;;;;6.72;6.05;;;;;;;;;;5095082;28;20212;-61
2020/12/30 03:09:24;;;;;;;7.18;6.47;;;;;;;;;;5095133;28;20220;-62
2020/12/30 03:11:51;;;;;;;6.72;5.50;;;;;;;;;;5095631;28;20220;-62
2020/12/30 03:14:19;;;;;;;7.32;5.82;;;;;;;;;;5094842;28;20554;-61
2020/12/30 03:16:47;;;;;;;7.90;6.00;;;;;;;;;;5094700;28;20200;-61
2020/12/30 03:19:14;;;;;;;6.00;5.40;;;;;;;;;;5094454;28;20250;-61
2020/12/30 03:21:41;;;;;;;6.03;5.43;;;;;;;;;;5094233;28;20227;-61
2020/12/30 03:24:07;;;;;;;8.50;6.25;;;;;;;;;;5094045;28;20204;-63
2020/12/30 03:26:35;;;;;;;7.22;6.15;;;;;;;;;;5094478;28;20196;-62
2020/12/30 03:29:02;;;;;;;6.25;5.63;;;;;;;;;;5094208;28;20212;-61
2020/12/30 03:31:29;;;;;;;8.25;5.70;;;;;;;;;;5094224;28;20224;-60
2020/12/30 03:33:57;;;;;;;7.57;5.85;;;;;;;;;;5096693;28;20200;-61
2020/12/30 03:36:24;;;;;;;6.38;5.70;;;;;;;;;;5095977;28;20204;-61
2020/12/30 03:38:51;;;;;;;9.73;6.45;;;;;;;;;;5094801;28;20574;-61
2020/12/30 03:41:18;;;;;;;7.47;6.00;;;;;;;;;;5094404;28;20576;-62
2020/12/30 03:43:45;;;;;;;8.73;5.38;;;;;;;;;;5094025;28;20207;-62
2020/12/30 03:46:12;;;;;;;7.65;5.72;;;;;;;;;;5094619;28;20204;-61
2020/12/30 03:48:39;;;;;;;10.00;5.55;;;;;;;;;;5095047;28;20227;-61
2020/12/30 03:51:06;;;;;;;7.03;5.93;;;;;;;;;;5094298;28;20748;-61
2020/12/30 03:53:33;;;;;;;7.22;5.95;;;;;;;;;;5094667;28;20200;-62
2020/12/30 03:56:00;;;;;;;6.57;5.97;;;;;;;;;;5094649;28;20203;-62
2020/12/30 03:58:27;;;;;;;6.15;5.55;;;;;;;;;;5093825;28;20203;-61
2020/12/30 04:00:54;;;;;;;6.47;5.38;;;;;;;;;;5093932;28;20668;-61
2020/12/30 04:03:21;;;;;;;6.55;5.95;;;;;;;;;;5094017;28;20290;-61
2020/12/30 04:07:31;;;;;;;7.82;6.15;;;;;;;;;;5111876;27;20543;-62
2020/12/30 04:09:58;;;;;;;7.60;5.38;;;;;;;;;;5111388;28;20562;-62
2020/12/30 04:12:25;;;;;;;6.38;5.72;;;;;;;;;;5111918;28;20219;-61
2020/12/30 04:14:52;;;;;;;8.65;6.10;;;;;;;;;;5114379;28;20247;-61
2020/12/30 04:17:18;;;;;;;7.43;6.22;;;;;;;;;;5116434;28;20200;-61
2020/12/30 04:19:45;;;;;;;9.40;6.55;;;;;;;;;;5113195;28;20200;-61
2020/12/30 04:22:12;;;;;;;7.18;6.50;;;;;;;;;;5112429;28;20223;-61
2020/12/30 04:24:39;;;;;;;7.88;6.40;;;;;;;;;;5112754;28;20253;-60
2020/12/30 04:27:06;;;;;;;8.35;6.05;;;;;;;;;;5111917;28;20211;-60
2020/12/30 04:29:33;;;;;;;7.90;6.30;;;;;;;;;;5111585;28;20199;-61
2020/12/30 04:32:00;;;;;;;9.88;5.90;;;;;;;;;;5111241;28;20223;-61
2020/12/30 04:34:27;;;;;;;7.30;5.88;;;;;;;;;;5110848;28;20343;-61
2020/12/30 04:36:53;;;;;;;6.65;5.95;;;;;;;;;;5111632;28;20211;-61
2020/12/30 04:39:20;;;;;;;8.48;5.70;;;;;;;;;;5110789;28;20204;-61
2020/12/30 04:41:49;;;;;;;7.07;6.07;;;;;;;;;;5110418;28;20231;-61
2020/12/30 04:44:16;;;;;;;8.90;6.70;;;;;;;;;;5110568;28;20200;-62
2020/12/30 04:46:43;;;;;;;8.35;6.80;;;;;;;;;;5110680;28;20311;-61
2020/12/30 04:49:11;;;;;;;10.10;6.90;;;;;;;;;;5110892;28;20222;-62
2020/12/30 04:51:38;;;;;;;7.75;6.45;;;;;;;;;;5110665;28;20246;-61
2020/12/30 04:54:05;;;;;;;7.43;6.72;;;;;;;;;;5110779;28;20206;-62
2020/12/30 04:56:41;;;;;;;7.47;5.75;;;;;;;;;;5110432;28;20601;-60
2020/12/30 04:59:09;;;;;;;7.05;6.35;;;;;;;;;;5110395;28;20180;-62
2020/12/30 05:01:39;;;;;;;7.28;6.55;;;;;;;;;;5109920;28;20231;-61
2020/12/30 05:04:06;;;;;;;7.75;6.95;;;;;;;;;;5110472;28;20263;-61
2020/12/30 05:06:33;;;;;;;6.57;5.50;;;;;;;;;;5109912;28;20223;-60
2020/12/30 05:09:00;;;;;;;9.23;6.47;;;;;;;;;;5110126;28;20214;-61
2020/12/30 05:11:27;;;;;;;9.38;6.68;;;;;;;;;;5109851;28;20224;-61
2020/12/30 05:13:54;;;;;;;10.85;7.55;;;;;;;;;;5110316;28;20203;-60
2020/12/30 05:16:21;;;;;;;9.63;6.90;;;;;;;;;;5111633;28;20199;-60
2020/12/30 05:18:49;;;;;;;7.72;5.85;;;;;;;;;;5097837;28;20226;-61
2020/12/30 05:21:16;;;;;;;9.18;7.10;;;;;;;;;;5096858;28;20226;-60
2020/12/30 05:23:43;;;;;;;7.85;6.03;;;;;;;;;;5097058;28;20208;-62
2020/12/30 05:26:10;;;;;;;10.13;6.63;;;;;;;;;;5097529;28;20212;-60
2020/12/30 05:28:37;;;;;;;8.55;6.28;;;;;;;;;;5097072;28;20204;-61
2020/12/30 05:31:04;;;;;;;9.32;6.50;;;;;;;;;;5096096;28;20228;-61
2020/12/30 05:33:32;;;;;;;9.63;7.38;;;;;;;;;;5096183;28;20201;-60
2020/12/30 05:36:00;;;;;;;8.30;6.63;;;;;;;;;;5096167;28;20207;-60
2020/12/30 05:38:28;;;;;;;10.00;6.50;;;;;;;;;;5096128;28;20578;-62
2020/12/30 05:40:55;;;;;;;7.50;6.47;;;;;;;;;;5095988;28;20325;-60
2020/12/30 05:43:21;;;;;;;8.88;6.68;;;;;;;;;;5095830;28;20582;-62
2020/12/30 05:45:49;;;;;;;7.28;6.03;;;;;;;;;;5095894;28;20216;-61
2020/12/30 05:48:16;;;;;;;10.73;6.43;;;;;;;;;;5096071;28;20200;-62
2020/12/30 05:50:50;;;;;;;7.22;6.20;;;;;;;;;;5095805;28;20676;-61
2020/12/30 05:53:17;;;;;;;10.73;6.90;;;;;;;;;;5096185;28;20537;-62
2020/12/30 05:55:47;;;;;;;10.20;6.25;;;;;;;;;;5096308;28;20246;-61
2020/12/30 05:58:15;;;;;;;8.02;5.90;;;;;;;;;;5095880;28;20277;-61
2020/12/30 06:00:42;;;;;;;6.97;6.28;;;;;;;;;;5095672;28;20253;-60
2020/12/30 06:03:09;;;;;;;7.45;6.07;;;;;;;;;;5095446;28;20211;-61
2020/12/30 06:05:35;;;;;;;8.57;7.45;;;;;;;;;;5095436;28;20224;-61
2020/12/30 06:08:03;;;;;;;7.80;6.32;;;;;;;;;;5095298;28;20181;-61
2020/12/30 06:10:30;;;;;;;7.70;6.22;;;;;;;;;;5095637;28;20329;-60
2020/12/30 06:12:58;;;;;;;9.52;6.88;;;;;;;;;;5095141;28;20293;-61
2020/12/30 06:15:25;;;;;;;7.88;6.03;;;;;;;;;;5095027;28;20299;-60
2020/12/30 06:17:56;;;;;;;12.52;6.05;;;;;;;;;;5095507;28;20552;-61
2020/12/30 06:20:24;;;;;;;10.95;7.05;;;;;;;;;;5095660;28;20189;-60
2020/12/30 06:22:55;;;;;;;7.93;6.75;;;;;;;;;;5095091;28;20780;-61
2020/12/30 06:25:24;;;;;;;9.27;6.80;;;;;;;;;;5094987;28;20204;-61
2020/12/30 06:27:51;;;;;;;8.85;6.93;;;;;;;;;;5094800;28;20604;-61
2020/12/30 06:30:18;;;;;;;7.72;6.63;;;;;;;;;;5093708;28;20205;-61
2020/12/30 06:32:45;;;;;;;7.18;6.47;;;;;;;;;;5094764;28;20220;-61
2020/12/30 06:35:11;;;;;;;8.32;7.05;;;;;;;;;;5095551;28;20246;-61
2020/12/30 06:37:39;;;;;;;7.38;6.60;;;;;;;;;;5096690;28;20660;-61
2020/12/30 06:40:33;;;;;;;8.73;6.90;;;;;;;;;;5098020;28;20201;-61
2020/12/30 06:43:02;;;;;;;7.40;6.63;;;;;;;;;;5098144;28;20689;-60
2020/12/30 06:45:51;;;;;;;8.25;6.60;;;;;;;;;;5097527;28;20200;-60
2020/12/30 06:48:21;;;;;;;9.30;7.07;;;;;;;;;;5097256;28;20231;-60
2020/12/30 06:50:49;;;;;;;10.80;6.68;;;;;;;;;;5097718;28;20534;-60
2020/12/30 06:53:31;;;;;;;9.82;6.63;;;;;;;;;;5097790;28;20207;-61
2020/12/30 06:55:59;;;;;;;7.72;6.93;;;;;;;;;;5096409;28;20261;-59
2020/12/30 06:58:45;;;;;;;10.23;7.60;;;;;;;;;;5097195;28;20200;-60
2020/12/30 07:01:13;;;;;;;9.40;7.18;;;;;;;;;;5097353;28;20224;-61
2020/12/30 07:03:39;;;;;;;8.73;7.38;;;;;;;;;;5095147;28;20204;-60
2020/12/30 07:06:25;;;;;;;7.78;6.38;;;;;;;;;;5094737;28;20215;-60
2020/12/30 07:08:52;;;;;;;8.80;6.70;;;;;;;;;;5095043;28;20200;-61
2020/12/30 07:11:37;;;;;;;9.05;7.57;;;;;;;;;;5095191;28;20216;-60
2020/12/30 07:14:07;;;;;;;10.15;6.55;;;;;;;;;;5094214;28;20222;-60
2020/12/30 07:16:34;;;;;;;7.35;6.63;;;;;;;;;;5093974;28;20232;-60
2020/12/30 07:19:01;;;;;;;13.07;7.32;;;;;;;;;;5094591;28;20279;-60
2020/12/30 07:21:28;;;;;;;12.50;7.57;;;;;;;;;;5095273;28;20317;-61
2020/12/30 07:23:55;;;;;;;9.13;6.45;;;;;;;;;;5097402;28;20212;-60
2020/12/30 07:26:22;;;;;;;6.80;5.95;;;;;;;;;;5097954;28;20223;-61
2020/12/30 07:28:49;;;;;;;8.82;6.53;;;;;;;;;;5096028;28;20510;-60
2020/12/30 07:31:17;;;;;;;7.72;6.45;;;;;;;;;;5097194;28;20220;-60
2020/12/30 07:33:44;;;;;;;7.70;6.75;;;;;;;;;;5100874;28;20208;-60
2020/12/30 07:36:12;;;;;;;7.60;5.90;;;;;;;;;;5096924;28;20671;-59
2020/12/30 07:38:39;;;;;;;7.72;5.97;;;;;;;;;;5096683;28;20215;-60
2020/12/30 07:41:06;;;;;;;8.15;6.50;;;;;;;;;;5100986;28;20220;-60
2020/12/30 07:43:44;;;;;;;7.75;6.32;;;;;;;;;;5103395;28;20547;-60
2020/12/30 07:46:15;;;;;;;10.02;5.55;;;;;;;;;;5098409;28;20298;-62
2020/12/30 07:48:42;;;;;;;8.07;6.90;;;;;;;;;;5094045;28;20609;-60
2020/12/30 07:51:09;;;;;;;7.15;6.18;;;;;;;;;;5093942;28;20217;-60
2020/12/30 07:53:36;;;;;;;7.55;5.45;;;;;;;;;;5094075;28;20204;-62
2020/12/30 07:56:03;;;;;;;7.40;6.70;;;;;;;;;;5093919;28;20667;-59
2020/12/30 07:58:29;;;;;;;6.03;5.18;;;;;;;;;;5093702;28;20204;-61
2020/12/30 08:00:57;;;;;;;7.95;6.60;;;;;;;;;;5093739;28;20216;-60
2020/12/30 08:03:23;;;;;;;7.47;6.57;;;;;;;;;;5093685;28;20204;-60
2020/12/30 08:05:51;;;;;;;7.18;5.90;;;;;;;;;;5093669;28;20315;-59
2020/12/30 08:08:18;;;;;;;8.50;6.38;;;;;;;;;;5093804;28;20206;-60
2020/12/30 08:10:48;;;;;;;8.10;6.93;;;;;;;;;;5094549;28;20196;-60
2020/12/30 08:13:15;;;;;;;10.48;6.22;;;;;;;;;;5094631;28;20205;-61
2020/12/30 08:15:51;;;;;;;8.02;6.70;;;;;;;;;;5094218;28;20223;-59
2020/12/30 08:18:18;;;;;;;8.23;6.22;;;;;;;;;;5094054;28;20232;-61
2020/12/30 08:20:45;;;;;;;9.80;6.30;;;;;;;;;;5093917;28;20199;-59
2020/12/30 08:23:18;;;;;;;7.22;6.10;;;;;;;;;;5094285;28;20197;-60
2020/12/30 08:25:47;;;;;;;12.98;7.38;;;;;;;;;;5095146;28;20242;-60
2020/12/30 08:28:14;;;;;;;10.80;7.25;;;;;;;;;;5094784;28;20207;-58
2020/12/30 08:30:42;;;;;;;9.32;6.97;;;;;;;;;;5094359;28;20200;-60
2020/12/30 08:33:10;;;;;;;6.00;5.40;;;;;;;;;;5093897;28;20632;-59
2020/12/30 08:35:39;;;;;;;9.10;6.45;;;;;;;;;;5094072;28;20563;-60
2020/12/30 08:38:13;;;;;;;10.05;6.90;;;;;;;;;;5093643;28;20744;-60
2020/12/30 08:40:41;;;;;;;9.18;6.40;;;;;;;;;;5093515;28;20184;-60
2020/12/30 08:43:23;;;;;;;7.88;6.25;;;;;;;;;;5093529;28;20672;-60
2020/12/30 08:46:03;;;;;;;6.88;6.18;;;;;;;;;;5093576;28;20220;-60
2020/12/30 08:48:31;;;;;;;8.70;6.38;;;;;;;;;;5093490;28;20207;-59
2020/12/30 08:50:58;;;;;;;10.25;7.25;;;;;;;;;;5093599;28;20216;-60
2020/12/30 08:53:37;;;;;;;7.75;6.80;;;;;;;;;;5095603;28;20196;-60
2020/12/30 08:56:05;;;;;;;9.90;6.90;;;;;;;;;;5096830;28;20218;-59
2020/12/30 08:58:32;;;;;;;9.02;6.82;;;;;;;;;;5097221;28;20204;-60
2020/12/30 09:00:59;;;;;;;7.43;6.45;;;;;;;;;;5097143;28;20246;-59
2020/12/30 09:03:27;;;;;;;9.60;8.10;;;;;;;;;;5096733;28;20201;-59
2020/12/30 09:05:54;;;;;;;8.75;6.55;;;;;;;;;;5097121;28;20220;-59
2020/12/30 09:08:22;;;;;;;9.52;6.75;;;;;;;;;;5099029;28;20204;-61
2020/12/30 09:10:49;;;;;;;10.15;7.07;;;;;;;;;;5098911;28;20204;-59
2020/12/30 09:13:17;;;;;;;9.35;7.20;;;;;;;;;;5098618;28;20201;-60
2020/12/30 09:15:45;;;;;;;8.15;7.35;;;;;;;;;;5098506;28;20219;-59
2020/12/30 09:18:12;;;;;;;8.32;6.97;;;;;;;;;;5098938;28;20673;-59
2020/12/30 09:20:39;;;;;;;9.93;7.07;;;;;;;;;;5098852;28;20204;-61
2020/12/30 09:23:06;;;;;;;9.35;6.85;;;;;;;;;;5097528;28;20556;-60
2020/12/30 09:25:35;;;;;;;10.20;7.25;;;;;;;;;;5097975;28;20203;-58
2020/12/30 09:28:02;;;;;;;11.48;7.35;;;;;;;;;;5097562;28;20226;-59
2020/12/30 09:30:34;;;;;;;9.55;6.75;;;;;;;;;;5096488;28;20684;-59
2020/12/30 09:33:11;;;;;;;8.52;7.43;;;;;;;;;;5096545;28;20200;-58
2020/12/30 09:35:38;;;;;;;7.78;6.97;;;;;;;;;;5096315;28;20188;-59
2020/12/30 09:38:05;;;;;;;8.32;6.43;;;;;;;;;;5096279;28;20196;-58
2020/12/30 09:40:39;;;;;;;9.38;7.45;;;;;;;;;;5097384;28;20652;-59
2020/12/30 09:43:10;;;;;;;7.47;6.57;;;;;;;;;;5096890;28;20188;-59
2020/12/30 09:45:38;;;;;;;10.10;8.40;;;;;;;;;;5096766;28;20204;-59
2020/12/30 09:48:11;;;;;;;7.68;6.90;;;;;;;;;;5096586;28;20679;-60
2020/12/30 09:50:38;;;;;;;9.15;7.13;;;;;;;;;;5096180;28;20625;-59
2020/12/30 09:53:05;;;;;;;8.65;6.25;;;;;;;;;;5096490;28;20763;-58
2020/12/30 09:55:32;;;;;;;9.10;6.90;;;;;;;;;;5096684;28;20204;-59
2020/12/30 09:57:58;;;;;;;8.50;6.45;;;;;;;;;;5096768;28;20193;-59
2020/12/30 10:00:25;;;;;;;8.05;6.65;;;;;;;;;;5096349;28;20196;-59
2020/12/30 10:02:53;;;;;;;7.75;6.40;;;;;;;;;;5095979;28;20224;-59
2020/12/30 10:05:20;;;;;;;7.63;6.40;;;;;;;;;;5096239;28;20208;-58
2020/12/30 10:07:47;;;;;;;8.50;6.25;;;;;;;;;;5097539;28;20254;-59
2020/12/30 10:10:13;;;;;;;7.18;6.15;;;;;;;;;;5097120;28;20273;-59
2020/12/30 10:12:40;;;;;;;6.72;5.95;;;;;;;;;;5096610;28;20269;-59
2020/12/30 10:15:07;;;;;;;8.40;6.50;;;;;;;;;;5095867;28;20208;-58
2020/12/30 10:17:34;;;;;;;7.35;5.50;;;;;;;;;;5096107;28;20200;-58
2020/12/30 10:20:02;;;;;;;5.43;4.72;;;;;;;;;;5097706;28;20306;-58
2020/12/30 10:22:29;;;;;;;10.18;5.40;;;;;;;;;;5096974;28;20243;-59
2020/12/30 10:24:55;;;;;;;9.70;6.75;;;;;;;;;;5097335;28;20204;-59
2020/12/30 10:27:22;;;;;;;7.82;5.22;;;;;;;;;;5096009;28;20273;-59
2020/12/30 10:29:49;;;;;;;8.23;5.78;;;;;;;;;;5097919;28;20201;-59
2020/12/30 10:32:15;;;;;;;7.97;6.13;;;;;;;;;;5095410;28;20243;-59
2020/12/30 10:34:42;;;;;;;6.10;5.22;;;;;;;;;;5096563;28;20227;-58
2020/12/30 10:37:10;;;;;;;7.43;6.05;;;;;;;;;;5095398;28;20283;-59
2020/12/30 10:39:37;;;;;;;7.07;5.60;;;;;;;;;;5094848;28;20231;-60
2020/12/30 10:42:04;;;;;;;6.90;5.35;;;;;;;;;;5095340;28;20224;-60
2020/12/30 10:44:32;;;;;;;7.45;6.47;;;;;;;;;;5097512;28;20203;-60
2020/12/30 10:46:58;;;;;;;8.70;6.88;;;;;;;;;;5099802;28;20350;-59
2020/12/30 10:49:25;;;;;;;6.95;6.05;;;;;;;;;;5101317;28;20257;-59
2020/12/30 10:51:52;;;;;;;6.85;6.10;;;;;;;;;;5099845;28;20224;-61
2020/12/30 10:54:20;;;;;;;7.28;6.57;;;;;;;;;;5100789;28;20551;-59
2020/12/30 10:56:47;;;;;;;7.00;5.82;;;;;;;;;;5095846;28;20196;-59
2020/12/30 10:59:14;;;;;;;7.30;6.32;;;;;;;;;;5095003;28;20210;-59
2020/12/30 11:01:41;;;;;;;9.40;6.80;;;;;;;;;;5094459;28;20231;-59
2020/12/30 11:04:08;;;;;;;7.78;6.93;;;;;;;;;;5094797;28;20224;-59
2020/12/30 11:06:34;;;;;;;6.97;6.28;;;;;;;;;;5094216;28;20231;-59
2020/12/30 11:09:01;;;;;;;8.05;7.10;;;;;;;;;;5094461;28;20207;-59
2020/12/30 11:11:29;;;;;;;9.43;6.90;;;;;;;;;;5094172;28;20703;-60
2020/12/30 11:13:55;;;;;;;7.80;6.60;;;;;;;;;;5094364;28;20197;-59
2020/12/30 11:16:22;;;;;;;7.97;6.30;;;;;;;;;;5093881;28;20495;-59
2020/12/30 11:18:49;;;;;;;7.40;6.60;;;;;;;;;;5093822;28;20208;-59
2020/12/30 11:21:16;;;;;;;7.43;6.47;;;;;;;;;;5094522;28;20235;-60
2020/12/30 11:23:42;;;;;;;10.18;7.22;;;;;;;;;;5094869;28;20208;-59
2020/12/30 11:26:09;;;;;;;7.00;6.15;;;;;;;;;;5094618;28;20217;-60
2020/12/30 11:28:37;;;;;;;8.38;6.95;;;;;;;;;;5095473;28;20196;-60
2020/12/30 11:31:04;;;;;;;6.97;6.28;;;;;;;;;;5095096;28;20227;-59
2020/12/30 11:33:31;;;;;;;11.95;7.25;;;;;;;;;;5095288;28;20227;-57
2020/12/30 11:35:57;;;;;;;8.75;6.45;;;;;;;;;;5096414;28;20205;-60
2020/12/30 11:38:24;;;;;;;6.90;6.20;;;;;;;;;;5101237;28;20208;-59
2020/12/30 11:40:51;;;;;;;7.75;6.95;;;;;;;;;;5099543;28;20569;-59
2020/12/30 11:43:18;;;;;;;8.20;6.55;;;;;;;;;;5096834;28;20203;-58
2020/12/30 11:45:45;;;;;;;9.10;7.20;;;;;;;;;;5097806;28;20208;-59
2020/12/30 11:48:12;;;;;;;9.02;7.28;;;;;;;;;;5097005;28;20247;-58
2020/12/30 11:50:39;;;;;;;7.20;6.50;;;;;;;;;;5096718;28;20204;-59
2020/12/30 11:53:06;;;;;;;8.98;7.47;;;;;;;;;;5096923;28;20200;-58
2020/12/30 11:55:32;;;;;;;10.10;6.22;;;;;;;;;;5098202;28;20273;-59
2020/12/30 11:57:59;;;;;;;7.25;6.55;;;;;;;;;;5097552;28;20246;-59
2020/12/30 12:00:26;;;;;;;9.93;6.40;;;;;;;;;;5095546;28;20197;-59
2020/12/30 12:02:53;;;;;;;8.43;6.40;;;;;;;;;;5094431;28;20224;-58
2020/12/30 12:05:20;;;;;;;9.23;7.53;;;;;;;;;;5094728;28;20200;-59
2020/12/30 12:07:47;;;;;;;7.25;6.55;;;;;;;;;;5094265;28;20256;-59
2020/12/30 12:10:14;;;;;;;7.10;6.40;;;;;;;;;;5094141;28;20254;-59
2020/12/30 12:12:40;;;;;;;7.53;6.72;;;;;;;;;;5093806;28;20235;-59
2020/12/30 12:15:07;;;;;;;7.60;6.68;;;;;;;;;;5093461;28;20196;-59
2020/12/30 12:17:34;;;;;;;7.18;6.35;;;;;;;;;;5093838;28;20200;-59
2020/12/30 12:20:02;;;;;;;8.90;7.40;;;;;;;;;;5094021;28;20200;-60
2020/12/30 12:22:29;;;;;;;9.80;6.93;;;;;;;;;;5092656;28;20594;-59
2020/12/30 12:24:56;;;;;;;8.52;7.10;;;;;;;;;;5093264;28;20200;-59
2020/12/30 12:27:23;;;;;;;8.10;7.25;;;;;;;;;;5093367;28;20212;-59
2020/12/30 12:29:50;;;;;;;8.77;6.50;;;;;;;;;;5097594;28;20249;-59
2020/12/30 12:32:18;;;;;;;8.05;6.57;;;;;;;;;;5097398;28;20224;-62
2020/12/30 12:34:45;;;;;;;7.60;6.75;;;;;;;;;;5097525;28;20204;-61
2020/12/30 12:37:13;;;;;;;8.35;7.43;;;;;;;;;;5097305;28;20192;-62
2020/12/30 12:39:41;;;;;;;7.45;6.63;;;;;;;;;;5096994;28;20209;-61
2020/12/30 12:42:07;;;;;;;7.88;7.03;;;;;;;;;;5097187;28;20568;-61
2020/12/30 12:44:34;;;;;;;8.02;7.22;;;;;;;;;;5096864;28;20618;-62
2020/12/30 12:47:01;;;;;;;9.27;7.93;;;;;;;;;;5096788;28;20714;-61
2020/12/30 12:49:28;;;;;;;9.68;7.80;;;;;;;;;;5096826;28;20204;-60
2020/12/30 12:51:56;;;;;;;9.43;6.90;;;;;;;;;;5096434;28;20707;-60
2020/12/30 12:54:23;;;;;;;8.60;7.03;;;;;;;;;;5096929;28;20196;-60
2020/12/30 12:56:54;;;;;;;8.07;7.22;;;;;;;;;;5096208;28;20644;-61
2020/12/30 12:59:21;;;;;;;9.63;8.23;;;;;;;;;;5096710;28;20192;-61
2020/12/30 13:01:48;;;;;;;10.43;8.68;;;;;;;;;;5096921;28;20220;-61
2020/12/30 13:04:15;;;;;;;8.60;7.50;;;;;;;;;;5097233;28;20204;-61
2020/12/30 13:06:42;;;;;;;8.48;7.50;;;;;;;;;;5096251;28;20224;-61
2020/12/30 13:09:09;;;;;;;10.15;8.43;;;;;;;;;;5096252;28;20204;-60
2020/12/30 13:11:41;;;;;;;9.77;7.78;;;;;;;;;;5096410;28;20726;-61
2020/12/30 13:14:07;;;;;;;9.07;8.18;;;;;;;;;;5097020;28;20185;-62
2020/12/30 13:16:34;;;;;;;9.55;8.23;;;;;;;;;;5097945;28;20204;-61
2020/12/30 13:19:01;;;;;;;11.52;8.13;;;;;;;;;;5097473;28;20575;-61
2020/12/30 13:21:28;;;;;;;8.98;8.07;;;;;;;;;;5096885;28;20231;-61
2020/12/30 13:23:54;;;;;;;12.32;8.35;;;;;;;;;;5097346;28;20211;-60
2020/12/30 13:26:21;;;;;;;12.13;8.50;;;;;;;;;;5096852;28;20672;-60
2020/12/30 13:28:49;;;;;;;9.20;8.20;;;;;;;;;;5096242;28;20201;-60
2020/12/30 13:31:15;;;;;;;9.82;7.93;;;;;;;;;;5097372;28;20216;-61
2020/12/30 13:33:42;;;;;;;8.80;7.90;;;;;;;;;;5098484;28;20200;-60
2020/12/30 13:36:09;;;;;;;10.10;7.75;;;;;;;;;;5098614;28;20226;-62
2020/12/30 13:38:37;;;;;;;10.43;7.28;;;;;;;;;;5100074;28;20205;-62
2020/12/30 13:41:03;;;;;;;8.35;7.43;;;;;;;;;;5100336;28;20220;-60
2020/12/30 13:43:30;;;;;;;8.88;7.55;;;;;;;;;;5097082;28;20498;-59
2020/12/30 13:45:58;;;;;;;12.35;8.93;;;;;;;;;;5096790;28;20204;-61
2020/12/30 13:48:24;;;;;;;8.25;7.45;;;;;;;;;;5097704;28;20261;-61
2020/12/30 13:50:51;;;;;;;11.38;8.90;;;;;;;;;;5097078;28;20295;-61
2020/12/30 13:53:18;;;;;;;8.82;7.65;;;;;;;;;;5097259;28;20200;-59
2020/12/30 13:55:46;;;;;;;8.90;6.90;;;;;;;;;;5096636;28;20616;-60
2020/12/30 13:58:13;;;;;;;9.63;7.28;;;;;;;;;;5096445;28;20197;-60
2020/12/30 14:00:40;;;;;;;9.20;7.47;;;;;;;;;;5096045;28;20200;-61
2020/12/30 14:03:08;;;;;;;8.50;7.57;;;;;;;;;;5096814;28;20291;-60
2020/12/30 14:05:37;;;;;;;8.55;7.63;;;;;;;;;;5096856;28;20342;-60
2020/12/30 14:08:04;;;;;;;8.52;7.65;;;;;;;;;;5097576;28;20205;-59
2020/12/30 14:10:31;;;;;;;7.75;6.97;;;;;;;;;;5096235;28;20575;-60
2020/12/30 14:12:58;;;;;;;8.75;7.85;;;;;;;;;;5097294;28;20216;-62
2020/12/30 14:15:25;;;;;;;11.23;9.30;;;;;;;;;;5098419;28;20196;-61
2020/12/30 14:17:52;;;;;;;11.07;8.40;;;;;;;;;;5098357;28;20602;-60
2020/12/30 14:20:20;;;;;;;14.90;9.20;;;;;;;;;;5098494;28;20286;-60
2020/12/30 14:22:47;;;;;;;10.30;8.95;;;;;;;;;;5098558;28;20364;-59
2020/12/30 14:25:13;;;;;;;13.27;8.60;;;;;;;;;;5097315;28;20709;-59
2020/12/30 14:27:40;;;;;;;12.15;9.23;;;;;;;;;;5097006;28;20234;-59
2020/12/30 14:30:07;;;;;;;12.35;9.55;;;;;;;;;;5096516;28;20196;-60
2020/12/30 14:32:34;;;;;;;11.85;9.27;;;;;;;;;;5096128;28;20247;-59
2020/12/30 14:35:01;;;;;;;10.77;9.63;;;;;;;;;;5096163;28;20207;-60
2020/12/30 14:37:28;;;;;;;10.27;8.70;;;;;;;;;;5095409;28;20192;-60
2020/12/30 14:39:55;;;;;;;10.30;9.20;;;;;;;;;;5094819;28;20295;-60
2020/12/30 14:42:22;;;;;;;10.90;8.32;;;;;;;;;;5094846;28;20220;-61
2020/12/30 14:44:49;;;;;;;11.15;9.30;;;;;;;;;;5094820;28;20208;-61